Terminal Aerodrome Forecast
Issued by NWS Louisville, KY

Home | Current Version | Previous Version | Text Only | Print | Product List | Glossary On
Versions: 1 2 3 4 5 6 7 8 9 10 11 12 13 14
000
FTUS43 KLMK 220500
TAFLEX
TAF
KLEX 220527Z 2206/2306 14009KT P6SM SCT040 BKN090 WS015/21035KT
     FM220800 17007KT P6SM BKN035
     FM221400 19013KT P6SM BKN060=

USA.gov is the U.S. government's official web portal to all federal, state and local government web resources and services.